sensor_id;sensor_type;location;lat;lon;timestamp;temperature;humidity
33095;DHT22;19459;53.044;8.910;2024-01-10T00:02:23;-5.20;99.90
33095;DHT22;19459;53.044;8.910;2024-01-10T00:04:49;-5.30;99.90
33095;DHT22;19459;53.044;8.910;2024-01-10T00:07:15;-5.30;99.90
33095;DHT22;19459;53.044;8.910;2024-01-10T00:09:41;-5.30;99.90
33095;DHT22;19459;53.044;8.910;2024-01-10T00:12:07;-5.30;99.90
33095;DHT22;19459;53.044;8.910;2024-01-10T00:14:33;-5.30;99.90
33095;DHT22;19459;53.044;8.910;2024-01-10T00:16:58;-5.30;99.90
33095;DHT22;19459;53.044;8.910;2024-01-10T00:19:24;-5.40;99.90
33095;DHT22;19459;53.044;8.910;2024-01-10T00:21:50;-5.40;99.90
33095;DHT22;19459;53.044;8.910;2024-01-10T00:24:16;-5.40;99.90
33095;DHT22;19459;53.044;8.910;2024-01-10T00:26:41;-5.40;99.90
33095;DHT22;19459;53.044;8.910;2024-01-10T00:29:07;-5.40;99.90
33095;DHT22;19459;53.044;8.910;2024-01-10T00:31:33;-5.40;99.90
33095;DHT22;19459;53.044;8.910;2024-01-10T00:33:59;-5.40;99.90
33095;DHT22;19459;53.044;8.910;2024-01-10T00:36:25;-5.40;99.90
33095;DHT22;19459;53.044;8.910;2024-01-10T00:38:51;-5.40;99.90
33095;DHT22;19459;53.044;8.910;2024-01-10T00:41:17;-5.50;99.90
33095;DHT22;19459;53.044;8.910;2024-01-10T00:43:42;-5.40;99.90
33095;DHT22;19459;53.044;8.910;2024-01-10T00:46:08;-5.40;99.90
33095;DHT22;19459;53.044;8.910;2024-01-10T00:48:34;-5.40;99.90
33095;DHT22;19459;53.044;8.910;2024-01-10T00:51:00;-5.40;99.90
33095;DHT22;19459;53.044;8.910;2024-01-10T00:53:26;-5.40;99.90
33095;DHT22;19459;53.044;8.910;2024-01-10T00:55:51;-5.40;99.90
33095;DHT22;19459;53.044;8.910;2024-01-10T00:58:17;-5.40;99.90
33095;DHT22;19459;53.044;8.910;2024-01-10T01:00:43;-5.40;99.90
33095;DHT22;19459;53.044;8.910;2024-01-10T01:03:09;-5.30;99.90
33095;DHT22;19459;53.044;8.910;2024-01-10T01:05:35;-5.30;99.90
33095;DHT22;19459;53.044;8.910;2024-01-10T01:08:01;-5.30;99.90
33095;DHT22;19459;53.044;8.910;2024-01-10T01:10:26;-5.30;99.90
33095;DHT22;19459;53.044;8.910;2024-01-10T01:12:52;-5.30;99.90
33095;DHT22;19459;53.044;8.910;2024-01-10T01:15:18;-5.30;99.90
33095;DHT22;19459;53.044;8.910;2024-01-10T01:17:44;-5.30;99.90
33095;DHT22;19459;53.044;8.910;2024-01-10T01:20:09;-5.30;99.90
33095;DHT22;19459;53.044;8.910;2024-01-10T01:22:35;-5.30;99.90
33095;DHT22;19459;53.044;8.910;2024-01-10T01:25:01;-5.30;99.90
33095;DHT22;19459;53.044;8.910;2024-01-10T01:27:27;-5.20;99.90
33095;DHT22;19459;53.044;8.910;2024-01-10T01:29:53;-5.30;99.90
33095;DHT22;19459;53.044;8.910;2024-01-10T01:32:19;-5.30;99.90
33095;DHT22;19459;53.044;8.910;2024-01-10T01:34:45;-5.30;99.90
33095;DHT22;19459;53.044;8.910;2024-01-10T01:37:10;-5.40;99.90
33095;DHT22;19459;53.044;8.910;2024-01-10T01:39:36;-5.40;99.90
33095;DHT22;19459;53.044;8.910;2024-01-10T01:42:02;-5.40;99.90
33095;DHT22;19459;53.044;8.910;2024-01-10T01:44:29;-5.40;99.90
33095;DHT22;19459;53.044;8.910;2024-01-10T01:46:55;-5.40;99.90
33095;DHT22;19459;53.044;8.910;2024-01-10T01:49:21;-5.40;99.90
33095;DHT22;19459;53.044;8.910;2024-01-10T01:51:47;-5.40;99.90
33095;DHT22;19459;53.044;8.910;2024-01-10T01:54:13;-5.40;99.90
33095;DHT22;19459;53.044;8.910;2024-01-10T01:56:42;-5.40;99.90
33095;DHT22;19459;53.044;8.910;2024-01-10T01:59:09;-5.40;99.90
33095;DHT22;19459;53.044;8.910;2024-01-10T02:01:35;-5.50;99.90
33095;DHT22;19459;53.044;8.910;2024-01-10T02:04:02;-5.50;99.90
33095;DHT22;19459;53.044;8.910;2024-01-10T02:06:29;-5.50;99.90
33095;DHT22;19459;53.044;8.910;2024-01-10T02:08:56;-5.50;99.90
33095;DHT22;19459;53.044;8.910;2024-01-10T02:11:24;-5.60;99.90
33095;DHT22;19459;53.044;8.910;2024-01-10T02:13:51;-5.60;99.90
33095;DHT22;19459;53.044;8.910;2024-01-10T02:16:20;-5.60;99.90
33095;DHT22;19459;53.044;8.910;2024-01-10T02:18:46;-5.60;99.90
33095;DHT22;19459;53.044;8.910;2024-01-10T02:21:12;-5.60;99.90
33095;DHT22;19459;53.044;8.910;2024-01-10T02:23:38;-5.60;99.90
33095;DHT22;19459;53.044;8.910;2024-01-10T02:26:04;-5.60;99.90
33095;DHT22;19459;53.044;8.910;2024-01-10T02:28:30;-5.60;99.90
33095;DHT22;19459;53.044;8.910;2024-01-10T02:30:56;-5.60;99.90
33095;DHT22;19459;53.044;8.910;2024-01-10T02:33:22;-5.60;99.90
33095;DHT22;19459;53.044;8.910;2024-01-10T02:35:48;-5.60;99.90
33095;DHT22;19459;53.044;8.910;2024-01-10T02:38:14;-5.60;99.90
33095;DHT22;19459;53.044;8.910;2024-01-10T02:40:40;-5.70;99.90
33095;DHT22;19459;53.044;8.910;2024-01-10T02:43:05;-5.70;99.90
33095;DHT22;19459;53.044;8.910;2024-01-10T02:45:33;-5.70;99.90
33095;DHT22;19459;53.044;8.910;2024-01-10T02:47:59;-5.70;99.90
33095;DHT22;19459;53.044;8.910;2024-01-10T02:50:25;-5.70;99.90
33095;DHT22;19459;53.044;8.910;2024-01-10T02:52:50;-5.70;99.90
33095;DHT22;19459;53.044;8.910;2024-01-10T02:55:16;-5.80;99.90
33095;DHT22;19459;53.044;8.910;2024-01-10T02:57:42;-5.80;99.90
33095;DHT22;19459;53.044;8.910;2024-01-10T03:00:08;-5.80;99.90
33095;DHT22;19459;53.044;8.910;2024-01-10T03:02:34;-5.80;99.90
33095;DHT22;19459;53.044;8.910;2024-01-10T03:05:00;-5.80;99.90
33095;DHT22;19459;53.044;8.910;2024-01-10T03:07:26;-5.80;99.90
33095;DHT22;19459;53.044;8.910;2024-01-10T03:09:51;-5.80;99.90
33095;DHT22;19459;53.044;8.910;2024-01-10T03:12:17;-5.80;99.90
33095;DHT22;19459;53.044;8.910;2024-01-10T03:14:43;-5.80;99.90
33095;DHT22;19459;53.044;8.910;2024-01-10T03:17:09;-5.90;99.90
33095;DHT22;19459;53.044;8.910;2024-01-10T03:19:35;-5.90;99.90
33095;DHT22;19459;53.044;8.910;2024-01-10T03:22:02;-5.90;99.90
33095;DHT22;19459;53.044;8.910;2024-01-10T03:24:28;-5.90;99.90
33095;DHT22;19459;53.044;8.910;2024-01-10T03:26:54;-6.00;99.90
33095;DHT22;19459;53.044;8.910;2024-01-10T03:29:20;-5.90;99.90
33095;DHT22;19459;53.044;8.910;2024-01-10T03:31:45;-5.90;99.90
33095;DHT22;19459;53.044;8.910;2024-01-10T03:34:11;-5.90;99.90
33095;DHT22;19459;53.044;8.910;2024-01-10T03:36:37;-5.90;99.90
33095;DHT22;19459;53.044;8.910;2024-01-10T03:39:03;-6.00;99.90
33095;DHT22;19459;53.044;8.910;2024-01-10T03:41:28;-5.90;99.90
33095;DHT22;19459;53.044;8.910;2024-01-10T03:43:54;-6.00;99.90
33095;DHT22;19459;53.044;8.910;2024-01-10T03:46:20;-6.00;99.90
33095;DHT22;19459;53.044;8.910;2024-01-10T03:48:46;-6.00;99.90
33095;DHT22;19459;53.044;8.910;2024-01-10T03:51:18;-6.00;99.90
33095;DHT22;19459;53.044;8.910;2024-01-10T03:53:47;-6.00;99.90
33095;DHT22;19459;53.044;8.910;2024-01-10T03:56:15;-6.00;99.90
33095;DHT22;19459;53.044;8.910;2024-01-10T03:58:40;-6.00;99.90
33095;DHT22;19459;53.044;8.910;2024-01-10T04:01:09;-6.00;99.90
33095;DHT22;19459;53.044;8.910;2024-01-10T04:03:35;-6.00;99.90
33095;DHT22;19459;53.044;8.910;2024-01-10T04:06:02;-6.00;99.90
33095;DHT22;19459;53.044;8.910;2024-01-10T04:08:28;-6.00;99.90
33095;DHT22;19459;53.044;8.910;2024-01-10T04:10:54;-6.00;99.90
33095;DHT22;19459;53.044;8.910;2024-01-10T04:13:20;-6.00;99.90
33095;DHT22;19459;53.044;8.910;2024-01-10T04:15:46;-6.00;99.90
33095;DHT22;19459;53.044;8.910;2024-01-10T04:18:12;-6.00;99.90
33095;DHT22;19459;53.044;8.910;2024-01-10T04:20:37;-6.00;99.90
33095;DHT22;19459;53.044;8.910;2024-01-10T04:23:03;-6.00;99.90
33095;DHT22;19459;53.044;8.910;2024-01-10T04:25:29;-5.90;99.90
33095;DHT22;19459;53.044;8.910;2024-01-10T04:27:55;-5.90;99.90
33095;DHT22;19459;53.044;8.910;2024-01-10T04:30:21;-5.90;99.90
33095;DHT22;19459;53.044;8.910;2024-01-10T04:32:47;-5.90;99.90
33095;DHT22;19459;53.044;8.910;2024-01-10T04:35:13;-5.90;99.90
33095;DHT22;19459;53.044;8.910;2024-01-10T04:37:38;-5.80;99.90
33095;DHT22;19459;53.044;8.910;2024-01-10T04:40:05;-5.80;99.90
33095;DHT22;19459;53.044;8.910;2024-01-10T04:42:31;-5.80;99.90
33095;DHT22;19459;53.044;8.910;2024-01-10T04:44:57;-5.80;99.90
33095;DHT22;19459;53.044;8.910;2024-01-10T04:47:23;-5.70;99.90
33095;DHT22;19459;53.044;8.910;2024-01-10T04:49:49;-5.70;99.90
33095;DHT22;19459;53.044;8.910;2024-01-10T04:52:14;-5.60;99.90
33095;DHT22;19459;53.044;8.910;2024-01-10T04:54:40;-5.60;99.90
33095;DHT22;19459;53.044;8.910;2024-01-10T04:57:06;-5.60;99.90
33095;DHT22;19459;53.044;8.910;2024-01-10T04:59:33;-5.50;99.90
33095;DHT22;19459;53.044;8.910;2024-01-10T05:01:58;-5.50;99.90
33095;DHT22;19459;53.044;8.910;2024-01-10T05:04:24;-5.50;99.90
33095;DHT22;19459;53.044;8.910;2024-01-10T05:06:50;-5.40;99.90
33095;DHT22;19459;53.044;8.910;2024-01-10T05:09:16;-5.40;99.90
33095;DHT22;19459;53.044;8.910;2024-01-10T05:11:42;-5.40;99.90
33095;DHT22;19459;53.044;8.910;2024-01-10T05:14:07;-5.40;99.90
33095;DHT22;19459;53.044;8.910;2024-01-10T05:16:33;-5.30;99.90
33095;DHT22;19459;53.044;8.910;2024-01-10T05:19:01;-5.30;99.90
33095;DHT22;19459;53.044;8.910;2024-01-10T05:21:29;-5.30;99.90
33095;DHT22;19459;53.044;8.910;2024-01-10T05:23:58;-5.30;99.90
33095;DHT22;19459;53.044;8.910;2024-01-10T05:26:24;-5.20;99.90
33095;DHT22;19459;53.044;8.910;2024-01-10T05:28:50;-5.30;99.90
33095;DHT22;19459;53.044;8.910;2024-01-10T05:31:16;-5.20;99.90
33095;DHT22;19459;53.044;8.910;2024-01-10T05:33:41;-5.20;99.90
33095;DHT22;19459;53.044;8.910;2024-01-10T05:36:09;-5.20;99.90
33095;DHT22;19459;53.044;8.910;2024-01-10T05:38:38;-5.10;99.90
33095;DHT22;19459;53.044;8.910;2024-01-10T05:41:05;-5.20;99.90
33095;DHT22;19459;53.044;8.910;2024-01-10T05:43:31;-5.20;99.90
33095;DHT22;19459;53.044;8.910;2024-01-10T05:45:57;-5.10;99.90
33095;DHT22;19459;53.044;8.910;2024-01-10T05:48:23;-5.10;99.90
33095;DHT22;19459;53.044;8.910;2024-01-10T05:50:49;-5.10;99.90
33095;DHT22;19459;53.044;8.910;2024-01-10T05:53:16;-5.10;99.90
33095;DHT22;19459;53.044;8.910;2024-01-10T05:55:43;-5.10;99.90
33095;DHT22;19459;53.044;8.910;2024-01-10T05:58:10;-5.20;99.90
33095;DHT22;19459;53.044;8.910;2024-01-10T06:00:36;-5.20;99.90
33095;DHT22;19459;53.044;8.910;2024-01-10T06:03:02;-5.20;99.90
33095;DHT22;19459;53.044;8.910;2024-01-10T06:05:28;-5.20;99.90
33095;DHT22;19459;53.044;8.910;2024-01-10T06:07:54;-5.20;99.90
33095;DHT22;19459;53.044;8.910;2024-01-10T06:10:20;-5.30;99.90
33095;DHT22;19459;53.044;8.910;2024-01-10T06:12:46;-5.30;99.90
33095;DHT22;19459;53.044;8.910;2024-01-10T06:15:11;-5.30;99.90
33095;DHT22;19459;53.044;8.910;2024-01-10T06:17:37;-5.30;99.90
33095;DHT22;19459;53.044;8.910;2024-01-10T06:20:04;-5.30;99.90
33095;DHT22;19459;53.044;8.910;2024-01-10T06:22:32;-5.30;99.90
33095;DHT22;19459;53.044;8.910;2024-01-10T06:24:58;-5.30;99.90
33095;DHT22;19459;53.044;8.910;2024-01-10T06:27:24;-5.20;99.90
33095;DHT22;19459;53.044;8.910;2024-01-10T06:29:50;-5.20;99.90
33095;DHT22;19459;53.044;8.910;2024-01-10T06:32:15;-5.20;99.90
33095;DHT22;19459;53.044;8.910;2024-01-10T06:34:41;-5.20;99.90
33095;DHT22;19459;53.044;8.910;2024-01-10T06:37:07;-5.20;99.90
33095;DHT22;19459;53.044;8.910;2024-01-10T06:39:33;-5.20;99.90
33095;DHT22;19459;53.044;8.910;2024-01-10T06:42:00;-5.20;99.90
33095;DHT22;19459;53.044;8.910;2024-01-10T06:44:25;-5.20;99.90
33095;DHT22;19459;53.044;8.910;2024-01-10T06:46:53;-5.20;99.90
33095;DHT22;19459;53.044;8.910;2024-01-10T06:49:19;-5.20;99.90
33095;DHT22;19459;53.044;8.910;2024-01-10T06:51:45;-5.20;99.90
33095;DHT22;19459;53.044;8.910;2024-01-10T06:54:11;-5.30;99.90
33095;DHT22;19459;53.044;8.910;2024-01-10T06:56:37;-5.30;99.90
33095;DHT22;19459;53.044;8.910;2024-01-10T06:59:03;-5.30;99.90
33095;DHT22;19459;53.044;8.910;2024-01-10T07:01:28;-5.20;99.90
33095;DHT22;19459;53.044;8.910;2024-01-10T07:03:54;-5.20;99.90
33095;DHT22;19459;53.044;8.910;2024-01-10T07:06:21;-5.30;99.90
33095;DHT22;19459;53.044;8.910;2024-01-10T07:08:49;-5.30;99.90
33095;DHT22;19459;53.044;8.910;2024-01-10T07:11:18;-5.30;99.90
33095;DHT22;19459;53.044;8.910;2024-01-10T07:13:45;-5.30;99.90
33095;DHT22;19459;53.044;8.910;2024-01-10T07:16:11;-5.30;99.90
33095;DHT22;19459;53.044;8.910;2024-01-10T07:18:40;-5.20;99.90
33095;DHT22;19459;53.044;8.910;2024-01-10T07:21:06;-5.30;99.90
33095;DHT22;19459;53.044;8.910;2024-01-10T07:23:34;-5.30;99.90
33095;DHT22;19459;53.044;8.910;2024-01-10T07:26:00;-5.20;99.90
33095;DHT22;19459;53.044;8.910;2024-01-10T07:28:26;-5.30;99.90
33095;DHT22;19459;53.044;8.910;2024-01-10T07:30:52;-5.30;99.90
33095;DHT22;19459;53.044;8.910;2024-01-10T07:33:18;-5.30;99.90
33095;DHT22;19459;53.044;8.910;2024-01-10T07:35:44;-5.30;99.90
33095;DHT22;19459;53.044;8.910;2024-01-10T07:38:09;-5.30;99.90
33095;DHT22;19459;53.044;8.910;2024-01-10T07:40:35;-5.30;99.90
33095;DHT22;19459;53.044;8.910;2024-01-10T07:43:01;-5.30;99.90
33095;DHT22;19459;53.044;8.910;2024-01-10T07:45:28;-5.20;99.90
33095;DHT22;19459;53.044;8.910;2024-01-10T07:47:54;-5.30;99.90
33095;DHT22;19459;53.044;8.910;2024-01-10T07:50:20;-5.30;99.90
33095;DHT22;19459;53.044;8.910;2024-01-10T07:52:46;-5.30;99.90
33095;DHT22;19459;53.044;8.910;2024-01-10T07:55:12;-5.30;99.90
33095;DHT22;19459;53.044;8.910;2024-01-10T07:57:38;-5.20;99.90
33095;DHT22;19459;53.044;8.910;2024-01-10T08:00:05;-5.20;99.90
33095;DHT22;19459;53.044;8.910;2024-01-10T08:02:33;-5.20;99.90
33095;DHT22;19459;53.044;8.910;2024-01-10T08:05:06;-5.20;99.90
33095;DHT22;19459;53.044;8.910;2024-01-10T08:07:38;-5.20;99.90
33095;DHT22;19459;53.044;8.910;2024-01-10T08:10:08;-5.10;99.90
33095;DHT22;19459;53.044;8.910;2024-01-10T08:12:38;-5.10;99.90
33095;DHT22;19459;53.044;8.910;2024-01-10T08:15:05;-5.10;99.90
33095;DHT22;19459;53.044;8.910;2024-01-10T08:17:32;-5.10;99.90
33095;DHT22;19459;53.044;8.910;2024-01-10T08:19:58;-5.10;99.90
33095;DHT22;19459;53.044;8.910;2024-01-10T08:22:26;-5.10;99.90
33095;DHT22;19459;53.044;8.910;2024-01-10T08:24:52;-5.10;99.90
33095;DHT22;19459;53.044;8.910;2024-01-10T08:27:17;-5.00;99.90
33095;DHT22;19459;53.044;8.910;2024-01-10T08:29:43;-5.00;99.90
33095;DHT22;19459;53.044;8.910;2024-01-10T08:32:10;-5.00;99.90
33095;DHT22;19459;53.044;8.910;2024-01-10T08:34:36;-4.90;99.90
33095;DHT22;19459;53.044;8.910;2024-01-10T08:37:02;-4.90;99.90
33095;DHT22;19459;53.044;8.910;2024-01-10T08:39:28;-4.90;99.90
33095;DHT22;19459;53.044;8.910;2024-01-10T08:41:56;-4.90;99.90
33095;DHT22;19459;53.044;8.910;2024-01-10T08:44:22;-4.90;99.90
33095;DHT22;19459;53.044;8.910;2024-01-10T08:46:48;-4.90;99.90
33095;DHT22;19459;53.044;8.910;2024-01-10T08:49:16;-4.80;99.90
33095;DHT22;19459;53.044;8.910;2024-01-10T08:51:42;-4.80;99.90
33095;DHT22;19459;53.044;8.910;2024-01-10T08:54:10;-4.80;99.90
33095;DHT22;19459;53.044;8.910;2024-01-10T08:56:38;-4.70;99.90
33095;DHT22;19459;53.044;8.910;2024-01-10T08:59:03;-4.70;99.90
33095;DHT22;19459;53.044;8.910;2024-01-10T09:01:29;-4.50;99.90
33095;DHT22;19459;53.044;8.910;2024-01-10T09:03:55;-3.90;99.90
33095;DHT22;19459;53.044;8.910;2024-01-10T09:06:21;-2.90;99.90
33095;DHT22;19459;53.044;8.910;2024-01-10T09:08:47;-1.70;99.90
33095;DHT22;19459;53.044;8.910;2024-01-10T09:11:13;-0.70;99.90
33095;DHT22;19459;53.044;8.910;2024-01-10T09:13:39;-0.30;99.90
33095;DHT22;19459;53.044;8.910;2024-01-10T09:16:05;0.10;99.90
33095;DHT22;19459;53.044;8.910;2024-01-10T09:18:31;0.40;99.90
33095;DHT22;19459;53.044;8.910;2024-01-10T09:20:57;0.40;99.90
33095;DHT22;19459;53.044;8.910;2024-01-10T09:23:23;0.50;99.90
33095;DHT22;19459;53.044;8.910;2024-01-10T09:25:49;0.40;99.90
33095;DHT22;19459;53.044;8.910;2024-01-10T09:28:14;0.40;99.90
33095;DHT22;19459;53.044;8.910;2024-01-10T09:30:40;0.20;99.90
33095;DHT22;19459;53.044;8.910;2024-01-10T09:33:06;-0.20;99.90
33095;DHT22;19459;53.044;8.910;2024-01-10T09:35:32;-0.20;99.90
33095;DHT22;19459;53.044;8.910;2024-01-10T09:37:57;-0.20;99.90
33095;DHT22;19459;53.044;8.910;2024-01-10T09:40:25;-0.20;99.90
33095;DHT22;19459;53.044;8.910;2024-01-10T09:42:53;-0.10;99.90
33095;DHT22;19459;53.044;8.910;2024-01-10T09:45:21;-0.30;99.90
33095;DHT22;19459;53.044;8.910;2024-01-10T09:47:56;-0.30;99.90
33095;DHT22;19459;53.044;8.910;2024-01-10T09:50:24;-0.50;99.90
33095;DHT22;19459;53.044;8.910;2024-01-10T09:53:06;-0.60;99.90
33095;DHT22;19459;53.044;8.910;2024-01-10T09:55:35;-0.20;99.90
33095;DHT22;19459;53.044;8.910;2024-01-10T09:58:04;-0.30;99.90
33095;DHT22;19459;53.044;8.910;2024-01-10T10:00:33;-0.50;99.90
33095;DHT22;19459;53.044;8.910;2024-01-10T10:03:00;-0.40;99.90
33095;DHT22;19459;53.044;8.910;2024-01-10T10:05:28;-0.30;99.90
33095;DHT22;19459;53.044;8.910;2024-01-10T10:07:54;-0.10;99.90
33095;DHT22;19459;53.044;8.910;2024-01-10T10:10:24;-0.10;99.90
33095;DHT22;19459;53.044;8.910;2024-01-10T10:12:51;-0.10;99.90
33095;DHT22;19459;53.044;8.910;2024-01-10T10:15:20;-0.10;99.90
33095;DHT22;19459;53.044;8.910;2024-01-10T10:17:52;0.00;99.90
33095;DHT22;19459;53.044;8.910;2024-01-10T10:20:25;0.00;99.90
33095;DHT22;19459;53.044;8.910;2024-01-10T10:23:03;0.00;99.90
33095;DHT22;19459;53.044;8.910;2024-01-10T10:25:43;0.00;99.90
33095;DHT22;19459;53.044;8.910;2024-01-10T10:28:09;0.00;99.90
33095;DHT22;19459;53.044;8.910;2024-01-10T10:30:35;-0.10;99.90
33095;DHT22;19459;53.044;8.910;2024-01-10T10:33:02;-0.10;99.90
33095;DHT22;19459;53.044;8.910;2024-01-10T10:35:28;-0.10;99.90
33095;DHT22;19459;53.044;8.910;2024-01-10T10:37:54;0.00;99.90
33095;DHT22;19459;53.044;8.910;2024-01-10T10:40:21;0.00;99.90
33095;DHT22;19459;53.044;8.910;2024-01-10T10:42:50;0.00;99.90
33095;DHT22;19459;53.044;8.910;2024-01-10T10:45:21;0.00;99.90
33095;DHT22;19459;53.044;8.910;2024-01-10T10:47:57;0.20;99.90
33095;DHT22;19459;53.044;8.910;2024-01-10T10:50:26;0.20;99.90
33095;DHT22;19459;53.044;8.910;2024-01-10T10:52:55;0.30;99.90
33095;DHT22;19459;53.044;8.910;2024-01-10T10:55:24;0.40;99.90
33095;DHT22;19459;53.044;8.910;2024-01-10T10:57:52;0.40;99.90
33095;DHT22;19459;53.044;8.910;2024-01-10T11:00:20;0.50;99.90
33095;DHT22;19459;53.044;8.910;2024-01-10T11:02:53;0.60;99.90
33095;DHT22;19459;53.044;8.910;2024-01-10T11:05:20;0.70;99.90
33095;DHT22;19459;53.044;8.910;2024-01-10T11:07:47;0.60;99.90
33095;DHT22;19459;53.044;8.910;2024-01-10T11:10:21;0.20;99.90
33095;DHT22;19459;53.044;8.910;2024-01-10T11:24:32;1.40;99.90
33095;DHT22;19459;53.044;8.910;2024-01-10T11:27:11;1.40;99.90
33095;DHT22;19459;53.044;8.910;2024-01-10T11:29:41;1.50;99.90
33095;DHT22;19459;53.044;8.910;2024-01-10T11:32:15;1.60;99.90
33095;DHT22;19459;53.044;8.910;2024-01-10T11:37:21;1.80;99.90
33095;DHT22;19459;53.044;8.910;2024-01-10T11:39:47;1.90;99.90
33095;DHT22;19459;53.044;8.910;2024-01-10T11:42:24;1.90;99.90
33095;DHT22;19459;53.044;8.910;2024-01-10T11:45:06;2.00;99.90
33095;DHT22;19459;53.044;8.910;2024-01-10T11:47:33;2.10;99.90
33095;DHT22;19459;53.044;8.910;2024-01-10T11:50:02;2.20;99.90
33095;DHT22;19459;53.044;8.910;2024-01-10T11:52:33;2.30;99.90
33095;DHT22;19459;53.044;8.910;2024-01-10T11:54:59;2.40;99.90
33095;DHT22;19459;53.044;8.910;2024-01-10T11:57:28;2.50;99.90
33095;DHT22;19459;53.044;8.910;2024-01-10T11:59:55;2.50;99.90
33095;DHT22;19459;53.044;8.910;2024-01-10T12:02:23;2.60;99.90
33095;DHT22;19459;53.044;8.910;2024-01-10T12:04:51;2.60;99.90
33095;DHT22;19459;53.044;8.910;2024-01-10T12:07:18;2.80;99.90
33095;DHT22;19459;53.044;8.910;2024-01-10T12:09:44;2.80;99.90
33095;DHT22;19459;53.044;8.910;2024-01-10T12:12:12;2.80;99.90
33095;DHT22;19459;53.044;8.910;2024-01-10T12:14:39;2.80;99.90
33095;DHT22;19459;53.044;8.910;2024-01-10T12:17:06;2.80;99.90
33095;DHT22;19459;53.044;8.910;2024-01-10T12:19:35;2.90;99.90
33095;DHT22;19459;53.044;8.910;2024-01-10T12:22:07;3.10;99.90
33095;DHT22;19459;53.044;8.910;2024-01-10T12:24:33;3.30;99.90
33095;DHT22;19459;53.044;8.910;2024-01-10T12:26:59;3.30;99.90
33095;DHT22;19459;53.044;8.910;2024-01-10T12:29:25;3.20;99.90
33095;DHT22;19459;53.044;8.910;2024-01-10T12:31:52;3.10;99.90
33095;DHT22;19459;53.044;8.910;2024-01-10T12:34:19;3.00;99.90
33095;DHT22;19459;53.044;8.910;2024-01-10T12:36:47;2.90;99.90
33095;DHT22;19459;53.044;8.910;2024-01-10T12:39:14;3.00;99.90
33095;DHT22;19459;53.044;8.910;2024-01-10T12:41:41;2.90;99.90
33095;DHT22;19459;53.044;8.910;2024-01-10T12:44:07;2.70;99.90
33095;DHT22;19459;53.044;8.910;2024-01-10T12:46:33;2.70;99.90
33095;DHT22;19459;53.044;8.910;2024-01-10T12:49:06;2.70;99.90
33095;DHT22;19459;53.044;8.910;2024-01-10T12:51:33;2.70;99.90
33095;DHT22;19459;53.044;8.910;2024-01-10T12:54:02;2.80;99.90
33095;DHT22;19459;53.044;8.910;2024-01-10T12:56:32;2.80;99.90
33095;DHT22;19459;53.044;8.910;2024-01-10T12:58:58;2.80;99.90
33095;DHT22;19459;53.044;8.910;2024-01-10T13:01:24;3.00;99.90
33095;DHT22;19459;53.044;8.910;2024-01-10T13:03:50;3.00;99.90
33095;DHT22;19459;53.044;8.910;2024-01-10T13:06:18;3.00;99.90
33095;DHT22;19459;53.044;8.910;2024-01-10T13:08:48;2.90;99.90
33095;DHT22;19459;53.044;8.910;2024-01-10T13:11:14;2.80;99.90
33095;DHT22;19459;53.044;8.910;2024-01-10T13:13:41;2.70;99.90
33095;DHT22;19459;53.044;8.910;2024-01-10T13:16:08;2.50;99.90
33095;DHT22;19459;53.044;8.910;2024-01-10T13:18:38;2.40;99.90
33095;DHT22;19459;53.044;8.910;2024-01-10T13:21:04;2.40;99.90
33095;DHT22;19459;53.044;8.910;2024-01-10T13:23:30;2.30;99.90
33095;DHT22;19459;53.044;8.910;2024-01-10T13:25:56;2.30;99.90
33095;DHT22;19459;53.044;8.910;2024-01-10T13:28:22;2.20;99.90
33095;DHT22;19459;53.044;8.910;2024-01-10T13:30:47;2.30;99.90
33095;DHT22;19459;53.044;8.910;2024-01-10T13:33:13;2.20;99.90
33095;DHT22;19459;53.044;8.910;2024-01-10T13:35:39;2.20;99.90
33095;DHT22;19459;53.044;8.910;2024-01-10T13:38:05;2.20;99.90
33095;DHT22;19459;53.044;8.910;2024-01-10T13:40:32;2.10;99.90
33095;DHT22;19459;53.044;8.910;2024-01-10T13:42:59;2.00;99.90
33095;DHT22;19459;53.044;8.910;2024-01-10T13:45:28;2.00;99.90
33095;DHT22;19459;53.044;8.910;2024-01-10T13:47:54;1.90;99.90
33095;DHT22;19459;53.044;8.910;2024-01-10T13:50:20;1.80;99.90
33095;DHT22;19459;53.044;8.910;2024-01-10T13:52:46;1.60;99.90
33095;DHT22;19459;53.044;8.910;2024-01-10T13:55:13;1.40;99.90
33095;DHT22;19459;53.044;8.910;2024-01-10T13:57:39;1.50;99.90
33095;DHT22;19459;53.044;8.910;2024-01-10T14:00:06;1.50;99.90
33095;DHT22;19459;53.044;8.910;2024-01-10T14:02:40;1.40;99.90
33095;DHT22;19459;53.044;8.910;2024-01-10T14:05:07;1.50;99.90
33095;DHT22;19459;53.044;8.910;2024-01-10T14:07:34;1.20;99.90
33095;DHT22;19459;53.044;8.910;2024-01-10T14:10:03;1.20;99.90
33095;DHT22;19459;53.044;8.910;2024-01-10T14:12:29;1.20;99.90
33095;DHT22;19459;53.044;8.910;2024-01-10T14:14:55;1.10;99.90
33095;DHT22;19459;53.044;8.910;2024-01-10T14:17:22;1.10;99.90
33095;DHT22;19459;53.044;8.910;2024-01-10T14:19:48;0.90;99.90
33095;DHT22;19459;53.044;8.910;2024-01-10T14:22:17;0.90;99.90
33095;DHT22;19459;53.044;8.910;2024-01-10T14:24:43;0.90;99.90
33095;DHT22;19459;53.044;8.910;2024-01-10T14:27:09;0.70;99.90
33095;DHT22;19459;53.044;8.910;2024-01-10T14:29:35;0.70;99.90
33095;DHT22;19459;53.044;8.910;2024-01-10T14:32:01;0.60;99.90
33095;DHT22;19459;53.044;8.910;2024-01-10T14:34:27;0.50;99.90
33095;DHT22;19459;53.044;8.910;2024-01-10T14:36:53;0.40;99.90
33095;DHT22;19459;53.044;8.910;2024-01-10T14:39:19;0.20;99.90
33095;DHT22;19459;53.044;8.910;2024-01-10T14:41:46;0.20;99.90
33095;DHT22;19459;53.044;8.910;2024-01-10T14:44:12;0.10;99.90
33095;DHT22;19459;53.044;8.910;2024-01-10T14:46:38;0.00;99.90
33095;DHT22;19459;53.044;8.910;2024-01-10T14:49:04;0.00;99.90
33095;DHT22;19459;53.044;8.910;2024-01-10T14:51:32;-0.20;99.90
33095;DHT22;19459;53.044;8.910;2024-01-10T14:53:58;-0.30;99.90
33095;DHT22;19459;53.044;8.910;2024-01-10T14:56:24;-0.40;99.90
33095;DHT22;19459;53.044;8.910;2024-01-10T14:58:50;-0.50;99.90
33095;DHT22;19459;53.044;8.910;2024-01-10T15:01:17;-0.60;99.90
33095;DHT22;19459;53.044;8.910;2024-01-10T15:03:43;-0.60;99.90
33095;DHT22;19459;53.044;8.910;2024-01-10T15:06:09;-0.70;99.90
33095;DHT22;19459;53.044;8.910;2024-01-10T15:08:35;-0.80;99.90
33095;DHT22;19459;53.044;8.910;2024-01-10T15:11:02;-0.80;99.90
33095;DHT22;19459;53.044;8.910;2024-01-10T15:13:28;-0.90;99.90
33095;DHT22;19459;53.044;8.910;2024-01-10T15:15:54;-1.00;99.90
33095;DHT22;19459;53.044;8.910;2024-01-10T15:18:20;-1.00;99.90
33095;DHT22;19459;53.044;8.910;2024-01-10T15:20:46;-1.10;99.90
33095;DHT22;19459;53.044;8.910;2024-01-10T15:23:12;-1.10;99.90
33095;DHT22;19459;53.044;8.910;2024-01-10T15:25:38;-1.20;99.90
33095;DHT22;19459;53.044;8.910;2024-01-10T15:28:04;-1.20;99.90
33095;DHT22;19459;53.044;8.910;2024-01-10T15:30:30;-1.30;99.90
33095;DHT22;19459;53.044;8.910;2024-01-10T15:32:58;-1.30;99.90
33095;DHT22;19459;53.044;8.910;2024-01-10T15:35:26;-1.40;99.90
33095;DHT22;19459;53.044;8.910;2024-01-10T15:37:52;-1.40;99.90
33095;DHT22;19459;53.044;8.910;2024-01-10T15:40:20;-1.40;99.90
33095;DHT22;19459;53.044;8.910;2024-01-10T15:42:46;-1.50;99.90
33095;DHT22;19459;53.044;8.910;2024-01-10T15:45:12;-1.50;99.90
33095;DHT22;19459;53.044;8.910;2024-01-10T15:47:38;-1.60;99.90